sensor_id;sensor_type;location;lat;lon;timestamp;P1;durP1;ratioP1;P2;durP2;ratioP2
59418;SDS011;45224;50.904;6.038;2023-04-25T00:01:05;12.47;;;3.60;;
59418;SDS011;45224;50.904;6.038;2023-04-25T00:02:36;8.27;;;3.37;;
59418;SDS011;45224;50.904;6.038;2023-04-25T00:04:06;13.90;;;3.93;;
59418;SDS011;45224;50.904;6.038;2023-04-25T00:05:37;18.45;;;4.50;;
59418;SDS011;45224;50.904;6.038;2023-04-25T00:07:09;10.70;;;3.83;;
59418;SDS011;45224;50.904;6.038;2023-04-25T00:08:39;15.37;;;3.97;;
59418;SDS011;45224;50.904;6.038;2023-04-25T00:10:10;9.20;;;4.03;;
59418;SDS011;45224;50.904;6.038;2023-04-25T00:11:41;11.95;;;3.80;;
59418;SDS011;45224;50.904;6.038;2023-04-25T00:13:12;11.47;;;3.83;;
59418;SDS011;45224;50.904;6.038;2023-04-25T00:14:43;9.15;;;3.53;;
59418;SDS011;45224;50.904;6.038;2023-04-25T00:16:15;10.20;;;3.75;;
59418;SDS011;45224;50.904;6.038;2023-04-25T00:17:46;10.93;;;4.05;;
59418;SDS011;45224;50.904;6.038;2023-04-25T00:19:17;10.57;;;3.42;;
59418;SDS011;45224;50.904;6.038;2023-04-25T00:20:47;10.67;;;4.03;;
59418;SDS011;45224;50.904;6.038;2023-04-25T00:22:18;20.92;;;4.43;;
59418;SDS011;45224;50.904;6.038;2023-04-25T00:23:49;10.30;;;4.27;;
59418;SDS011;45224;50.904;6.038;2023-04-25T00:25:19;14.50;;;4.47;;
59418;SDS011;45224;50.904;6.038;2023-04-25T00:26:49;14.43;;;4.10;;
59418;SDS011;45224;50.904;6.038;2023-04-25T00:28:20;11.93;;;3.72;;
59418;SDS011;45224;50.904;6.038;2023-04-25T00:29:51;13.17;;;3.73;;
59418;SDS011;45224;50.904;6.038;2023-04-25T00:31:21;15.73;;;4.03;;
59418;SDS011;45224;50.904;6.038;2023-04-25T00:32:52;14.95;;;3.95;;
59418;SDS011;45224;50.904;6.038;2023-04-25T00:34:23;14.55;;;4.00;;
59418;SDS011;45224;50.904;6.038;2023-04-25T00:35:53;8.10;;;4.13;;
59418;SDS011;45224;50.904;6.038;2023-04-25T00:37:24;12.73;;;4.00;;
59418;SDS011;45224;50.904;6.038;2023-04-25T00:38:55;12.73;;;4.53;;
59418;SDS011;45224;50.904;6.038;2023-04-25T00:40:26;14.07;;;4.00;;
59418;SDS011;45224;50.904;6.038;2023-04-25T00:41:57;14.52;;;4.03;;
59418;SDS011;45224;50.904;6.038;2023-04-25T00:43:28;16.40;;;4.93;;
59418;SDS011;45224;50.904;6.038;2023-04-25T00:45:01;12.20;;;4.10;;
59418;SDS011;45224;50.904;6.038;2023-04-25T00:46:31;17.70;;;4.77;;
59418;SDS011;45224;50.904;6.038;2023-04-25T00:48:02;15.15;;;4.40;;
59418;SDS011;45224;50.904;6.038;2023-04-25T00:49:34;17.27;;;4.22;;
59418;SDS011;45224;50.904;6.038;2023-04-25T00:51:05;12.23;;;4.63;;
59418;SDS011;45224;50.904;6.038;2023-04-25T00:52:38;18.20;;;4.35;;
59418;SDS011;45224;50.904;6.038;2023-04-25T00:54:11;13.82;;;4.63;;
59418;SDS011;45224;50.904;6.038;2023-04-25T00:57:12;16.47;;;4.17;;
59418;SDS011;45224;50.904;6.038;2023-04-25T00:58:43;17.70;;;4.37;;
59418;SDS011;45224;50.904;6.038;2023-04-25T01:00:13;9.97;;;3.90;;
59418;SDS011;45224;50.904;6.038;2023-04-25T01:01:44;22.48;;;4.57;;
59418;SDS011;45224;50.904;6.038;2023-04-25T01:03:15;20.10;;;5.10;;
59418;SDS011;45224;50.904;6.038;2023-04-25T01:04:47;19.60;;;5.70;;
59418;SDS011;45224;50.904;6.038;2023-04-25T01:06:18;16.75;;;5.22;;
59418;SDS011;45224;50.904;6.038;2023-04-25T01:07:49;25.75;;;6.03;;
59418;SDS011;45224;50.904;6.038;2023-04-25T01:09:20;19.52;;;4.50;;
59418;SDS011;45224;50.904;6.038;2023-04-25T01:10:52;16.25;;;4.40;;
59418;SDS011;45224;50.904;6.038;2023-04-25T01:12:22;14.77;;;4.10;;
59418;SDS011;45224;50.904;6.038;2023-04-25T01:13:53;20.85;;;4.63;;
59418;SDS011;45224;50.904;6.038;2023-04-25T01:15:24;19.00;;;4.50;;
59418;SDS011;45224;50.904;6.038;2023-04-25T01:16:54;15.90;;;4.90;;
59418;SDS011;45224;50.904;6.038;2023-04-25T01:18:25;22.33;;;5.75;;
59418;SDS011;45224;50.904;6.038;2023-04-25T01:19:56;19.10;;;4.45;;
59418;SDS011;45224;50.904;6.038;2023-04-25T01:21:27;14.60;;;4.50;;
59418;SDS011;45224;50.904;6.038;2023-04-25T01:23:00;19.55;;;5.25;;
59418;SDS011;45224;50.904;6.038;2023-04-25T01:24:32;15.52;;;4.47;;
59418;SDS011;45224;50.904;6.038;2023-04-25T01:26:03;18.63;;;4.32;;
59418;SDS011;45224;50.904;6.038;2023-04-25T01:29:07;16.33;;;5.07;;
59418;SDS011;45224;50.904;6.038;2023-04-25T01:30:39;16.20;;;3.97;;
59418;SDS011;45224;50.904;6.038;2023-04-25T01:32:11;15.15;;;4.03;;
59418;SDS011;45224;50.904;6.038;2023-04-25T01:33:43;12.18;;;3.90;;
59418;SDS011;45224;50.904;6.038;2023-04-25T01:35:14;11.20;;;4.32;;
59418;SDS011;45224;50.904;6.038;2023-04-25T01:36:46;15.13;;;4.43;;
59418;SDS011;45224;50.904;6.038;2023-04-25T01:38:19;20.67;;;4.55;;
59418;SDS011;45224;50.904;6.038;2023-04-25T01:39:49;17.90;;;4.30;;
59418;SDS011;45224;50.904;6.038;2023-04-25T01:41:20;13.90;;;4.10;;
59418;SDS011;45224;50.904;6.038;2023-04-25T01:42:53;13.68;;;4.13;;
59418;SDS011;45224;50.904;6.038;2023-04-25T01:44:24;12.38;;;4.03;;
59418;SDS011;45224;50.904;6.038;2023-04-25T01:45:55;15.50;;;3.97;;
59418;SDS011;45224;50.904;6.038;2023-04-25T01:47:27;13.18;;;3.85;;
59418;SDS011;45224;50.904;6.038;2023-04-25T01:48:58;15.75;;;4.82;;
59418;SDS011;45224;50.904;6.038;2023-04-25T01:50:29;14.23;;;4.10;;
59418;SDS011;45224;50.904;6.038;2023-04-25T01:51:59;16.98;;;4.60;;
59418;SDS011;45224;50.904;6.038;2023-04-25T01:53:30;19.00;;;5.30;;
59418;SDS011;45224;50.904;6.038;2023-04-25T01:55:01;15.20;;;4.65;;
59418;SDS011;45224;50.904;6.038;2023-04-25T01:56:36;16.83;;;4.78;;
59418;SDS011;45224;50.904;6.038;2023-04-25T01:58:08;18.40;;;4.43;;
59418;SDS011;45224;50.904;6.038;2023-04-25T02:00:06;17.95;;;4.28;;
59418;SDS011;45224;50.904;6.038;2023-04-25T02:01:44;13.73;;;4.15;;
59418;SDS011;45224;50.904;6.038;2023-04-25T02:03:29;16.05;;;4.38;;
59418;SDS011;45224;50.904;6.038;2023-04-25T02:05:00;21.08;;;4.70;;
59418;SDS011;45224;50.904;6.038;2023-04-25T02:06:32;18.00;;;4.38;;
59418;SDS011;45224;50.904;6.038;2023-04-25T02:08:04;18.60;;;4.63;;
59418;SDS011;45224;50.904;6.038;2023-04-25T02:09:36;15.10;;;4.53;;
59418;SDS011;45224;50.904;6.038;2023-04-25T02:11:09;15.90;;;4.80;;
59418;SDS011;45224;50.904;6.038;2023-04-25T02:12:49;13.88;;;4.22;;
59418;SDS011;45224;50.904;6.038;2023-04-25T02:14:37;19.58;;;4.88;;
59418;SDS011;45224;50.904;6.038;2023-04-25T02:16:14;12.95;;;3.65;;
59418;SDS011;45224;50.904;6.038;2023-04-25T02:17:45;26.77;;;5.67;;
59418;SDS011;45224;50.904;6.038;2023-04-25T02:19:15;19.25;;;4.60;;
59418;SDS011;45224;50.904;6.038;2023-04-25T02:20:46;20.73;;;4.97;;
59418;SDS011;45224;50.904;6.038;2023-04-25T02:22:17;16.83;;;5.25;;
59418;SDS011;45224;50.904;6.038;2023-04-25T02:23:47;23.43;;;4.77;;
59418;SDS011;45224;50.904;6.038;2023-04-25T02:25:19;14.00;;;4.32;;
59418;SDS011;45224;50.904;6.038;2023-04-25T02:26:50;11.77;;;3.67;;
59418;SDS011;45224;50.904;6.038;2023-04-25T02:28:21;16.52;;;4.20;;
59418;SDS011;45224;50.904;6.038;2023-04-25T02:29:53;16.92;;;4.60;;
59418;SDS011;45224;50.904;6.038;2023-04-25T02:31:23;15.27;;;4.07;;
59418;SDS011;45224;50.904;6.038;2023-04-25T02:34:26;19.05;;;4.25;;
59418;SDS011;45224;50.904;6.038;2023-04-25T02:35:57;17.87;;;4.70;;
59418;SDS011;45224;50.904;6.038;2023-04-25T02:37:27;16.43;;;4.60;;
59418;SDS011;45224;50.904;6.038;2023-04-25T02:38:57;29.00;;;5.37;;
59418;SDS011;45224;50.904;6.038;2023-04-25T02:40:28;14.33;;;4.73;;
59418;SDS011;45224;50.904;6.038;2023-04-25T02:41:58;18.77;;;4.73;;
59418;SDS011;45224;50.904;6.038;2023-04-25T02:43:29;16.47;;;4.40;;
59418;SDS011;45224;50.904;6.038;2023-04-25T02:44:59;17.73;;;4.53;;
59418;SDS011;45224;50.904;6.038;2023-04-25T02:46:30;14.15;;;4.53;;
59418;SDS011;45224;50.904;6.038;2023-04-25T02:48:02;22.30;;;5.00;;
59418;SDS011;45224;50.904;6.038;2023-04-25T02:49:35;17.48;;;4.57;;
59418;SDS011;45224;50.904;6.038;2023-04-25T02:51:06;16.63;;;4.53;;
59418;SDS011;45224;50.904;6.038;2023-04-25T02:52:36;22.13;;;5.83;;
59418;SDS011;45224;50.904;6.038;2023-04-25T02:54:16;17.48;;;4.35;;
59418;SDS011;45224;50.904;6.038;2023-04-25T02:55:50;15.13;;;4.30;;
59418;SDS011;45224;50.904;6.038;2023-04-25T02:57:23;19.75;;;4.93;;
59418;SDS011;45224;50.904;6.038;2023-04-25T02:58:53;22.10;;;4.53;;
59418;SDS011;45224;50.904;6.038;2023-04-25T03:00:24;10.23;;;4.33;;
59418;SDS011;45224;50.904;6.038;2023-04-25T03:01:54;14.47;;;4.07;;
59418;SDS011;45224;50.904;6.038;2023-04-25T03:03:25;15.32;;;4.38;;
59418;SDS011;45224;50.904;6.038;2023-04-25T03:04:56;25.73;;;5.30;;
59418;SDS011;45224;50.904;6.038;2023-04-25T03:06:26;18.33;;;4.97;;
59418;SDS011;45224;50.904;6.038;2023-04-25T03:07:57;18.13;;;4.50;;
59418;SDS011;45224;50.904;6.038;2023-04-25T03:09:27;19.50;;;4.17;;
59418;SDS011;45224;50.904;6.038;2023-04-25T03:10:58;17.87;;;4.00;;
59418;SDS011;45224;50.904;6.038;2023-04-25T03:12:29;12.15;;;3.90;;
59418;SDS011;45224;50.904;6.038;2023-04-25T03:13:59;20.60;;;5.17;;
59418;SDS011;45224;50.904;6.038;2023-04-25T03:15:30;18.77;;;4.15;;
59418;SDS011;45224;50.904;6.038;2023-04-25T03:17:01;17.10;;;4.47;;
59418;SDS011;45224;50.904;6.038;2023-04-25T03:18:32;13.05;;;4.28;;
59418;SDS011;45224;50.904;6.038;2023-04-25T03:20:02;15.53;;;4.27;;
59418;SDS011;45224;50.904;6.038;2023-04-25T03:21:35;21.05;;;4.90;;
59418;SDS011;45224;50.904;6.038;2023-04-25T03:23:06;19.90;;;5.15;;
59418;SDS011;45224;50.904;6.038;2023-04-25T03:24:36;29.73;;;4.90;;
59418;SDS011;45224;50.904;6.038;2023-04-25T03:26:07;19.13;;;4.60;;
59418;SDS011;45224;50.904;6.038;2023-04-25T03:27:38;18.17;;;4.47;;
59418;SDS011;45224;50.904;6.038;2023-04-25T03:29:09;14.93;;;4.45;;
59418;SDS011;45224;50.904;6.038;2023-04-25T03:30:42;13.65;;;4.40;;
59418;SDS011;45224;50.904;6.038;2023-04-25T03:32:13;27.15;;;6.38;;
59418;SDS011;45224;50.904;6.038;2023-04-25T03:33:44;14.60;;;4.25;;
59418;SDS011;45224;50.904;6.038;2023-04-25T03:35:14;18.63;;;4.77;;
59418;SDS011;45224;50.904;6.038;2023-04-25T03:36:45;11.83;;;4.67;;
59418;SDS011;45224;50.904;6.038;2023-04-25T03:38:16;14.70;;;4.35;;
59418;SDS011;45224;50.904;6.038;2023-04-25T03:39:48;16.30;;;4.38;;
59418;SDS011;45224;50.904;6.038;2023-04-25T03:41:20;16.00;;;3.78;;
59418;SDS011;45224;50.904;6.038;2023-04-25T03:42:55;12.93;;;3.97;;
59418;SDS011;45224;50.904;6.038;2023-04-25T03:44:26;19.88;;;4.75;;
59418;SDS011;45224;50.904;6.038;2023-04-25T03:45:57;19.20;;;4.73;;
59418;SDS011;45224;50.904;6.038;2023-04-25T03:47:29;17.67;;;4.82;;
59418;SDS011;45224;50.904;6.038;2023-04-25T03:48:59;20.58;;;4.85;;
59418;SDS011;45224;50.904;6.038;2023-04-25T03:50:41;19.02;;;4.22;;
59418;SDS011;45224;50.904;6.038;2023-04-25T03:52:12;26.00;;;4.25;;
59418;SDS011;45224;50.904;6.038;2023-04-25T03:53:44;18.17;;;3.92;;
59418;SDS011;45224;50.904;6.038;2023-04-25T03:55:24;17.50;;;4.30;;
59418;SDS011;45224;50.904;6.038;2023-04-25T03:56:54;16.80;;;3.87;;
59418;SDS011;45224;50.904;6.038;2023-04-25T03:58:27;12.02;;;3.78;;
59418;SDS011;45224;50.904;6.038;2023-04-25T03:59:58;18.63;;;4.13;;
59418;SDS011;45224;50.904;6.038;2023-04-25T04:01:28;20.90;;;4.28;;
59418;SDS011;45224;50.904;6.038;2023-04-25T04:02:59;19.37;;;4.37;;
59418;SDS011;45224;50.904;6.038;2023-04-25T04:04:29;21.67;;;4.87;;
59418;SDS011;45224;50.904;6.038;2023-04-25T04:06:01;16.48;;;4.45;;
59418;SDS011;45224;50.904;6.038;2023-04-25T04:07:38;16.52;;;4.13;;
59418;SDS011;45224;50.904;6.038;2023-04-25T04:09:11;15.50;;;4.20;;
59418;SDS011;45224;50.904;6.038;2023-04-25T04:10:44;25.92;;;5.07;;
59418;SDS011;45224;50.904;6.038;2023-04-25T04:12:14;18.53;;;4.77;;
59418;SDS011;45224;50.904;6.038;2023-04-25T04:13:45;21.17;;;5.22;;
59418;SDS011;45224;50.904;6.038;2023-04-25T04:15:16;18.52;;;4.85;;
59418;SDS011;45224;50.904;6.038;2023-04-25T04:16:48;18.98;;;5.75;;
59418;SDS011;45224;50.904;6.038;2023-04-25T04:18:19;15.77;;;4.50;;
59418;SDS011;45224;50.904;6.038;2023-04-25T04:19:49;18.38;;;4.32;;
59418;SDS011;45224;50.904;6.038;2023-04-25T04:21:23;18.10;;;4.57;;
59418;SDS011;45224;50.904;6.038;2023-04-25T04:22:54;23.10;;;4.95;;
59418;SDS011;45224;50.904;6.038;2023-04-25T04:24:25;26.55;;;6.00;;
59418;SDS011;45224;50.904;6.038;2023-04-25T04:26:01;14.90;;;5.03;;
59418;SDS011;45224;50.904;6.038;2023-04-25T04:27:32;24.98;;;5.28;;
59418;SDS011;45224;50.904;6.038;2023-04-25T04:29:25;23.80;;;4.85;;
59418;SDS011;45224;50.904;6.038;2023-04-25T04:31:03;23.02;;;4.50;;
59418;SDS011;45224;50.904;6.038;2023-04-25T04:32:34;34.55;;;6.93;;
59418;SDS011;45224;50.904;6.038;2023-04-25T04:34:08;21.40;;;4.38;;
59418;SDS011;45224;50.904;6.038;2023-04-25T04:35:40;20.77;;;3.92;;
59418;SDS011;45224;50.904;6.038;2023-04-25T04:37:11;18.23;;;4.82;;
59418;SDS011;45224;50.904;6.038;2023-04-25T04:40:21;10.63;;;3.88;;
59418;SDS011;45224;50.904;6.038;2023-04-25T04:42:08;21.77;;;5.05;;
59418;SDS011;45224;50.904;6.038;2023-04-25T04:43:49;19.23;;;4.65;;
59418;SDS011;45224;50.904;6.038;2023-04-25T04:45:52;26.70;;;5.68;;
59418;SDS011;45224;50.904;6.038;2023-04-25T04:47:44;30.60;;;5.60;;
59418;SDS011;45224;50.904;6.038;2023-04-25T04:49:37;26.50;;;5.60;;
59418;SDS011;45224;50.904;6.038;2023-04-25T04:51:34;23.77;;;4.72;;
59418;SDS011;45224;50.904;6.038;2023-04-25T04:53:27;23.27;;;5.13;;
59418;SDS011;45224;50.904;6.038;2023-04-25T04:55:16;14.82;;;4.45;;
59418;SDS011;45224;50.904;6.038;2023-04-25T04:57:07;16.30;;;4.15;;
59418;SDS011;45224;50.904;6.038;2023-04-25T04:58:59;21.38;;;4.18;;
59418;SDS011;45224;50.904;6.038;2023-04-25T05:00:30;15.77;;;4.33;;
59418;SDS011;45224;50.904;6.038;2023-04-25T05:02:15;18.33;;;4.18;;
59418;SDS011;45224;50.904;6.038;2023-04-25T05:03:56;17.87;;;5.60;;
59418;SDS011;45224;50.904;6.038;2023-04-25T05:05:50;15.68;;;4.43;;
59418;SDS011;45224;50.904;6.038;2023-04-25T05:07:47;25.83;;;5.53;;
59418;SDS011;45224;50.904;6.038;2023-04-25T05:11:15;23.02;;;5.10;;
59418;SDS011;45224;50.904;6.038;2023-04-25T05:12:59;21.33;;;5.40;;
59418;SDS011;45224;50.904;6.038;2023-04-25T05:14:48;19.50;;;4.32;;
59418;SDS011;45224;50.904;6.038;2023-04-25T05:16:37;23.90;;;4.60;;
59418;SDS011;45224;50.904;6.038;2023-04-25T05:18:26;17.73;;;4.35;;
59418;SDS011;45224;50.904;6.038;2023-04-25T05:20:20;18.25;;;5.15;;
59418;SDS011;45224;50.904;6.038;2023-04-25T05:22:09;21.45;;;4.43;;
59418;SDS011;45224;50.904;6.038;2023-04-25T05:24:05;27.10;;;5.50;;
59418;SDS011;45224;50.904;6.038;2023-04-25T05:25:36;16.73;;;4.53;;
59418;SDS011;45224;50.904;6.038;2023-04-25T05:27:25;18.40;;;4.53;;
59418;SDS011;45224;50.904;6.038;2023-04-25T05:29:11;22.52;;;5.75;;
59418;SDS011;45224;50.904;6.038;2023-04-25T05:31:11;20.13;;;4.97;;
59418;SDS011;45224;50.904;6.038;2023-04-25T05:32:56;22.75;;;5.30;;
59418;SDS011;45224;50.904;6.038;2023-04-25T05:34:27;25.47;;;5.90;;
59418;SDS011;45224;50.904;6.038;2023-04-25T05:36:00;26.45;;;5.88;;
59418;SDS011;45224;50.904;6.038;2023-04-25T05:37:31;21.90;;;6.13;;
59418;SDS011;45224;50.904;6.038;2023-04-25T05:39:10;22.55;;;5.72;;
59418;SDS011;45224;50.904;6.038;2023-04-25T05:40:59;19.05;;;5.88;;
59418;SDS011;45224;50.904;6.038;2023-04-25T05:42:48;18.27;;;5.45;;
59418;SDS011;45224;50.904;6.038;2023-04-25T05:44:41;23.00;;;4.80;;
59418;SDS011;45224;50.904;6.038;2023-04-25T05:46:23;20.98;;;5.90;;
59418;SDS011;45224;50.904;6.038;2023-04-25T05:48:12;27.70;;;5.30;;
59418;SDS011;45224;50.904;6.038;2023-04-25T05:50:01;19.50;;;4.97;;
59418;SDS011;45224;50.904;6.038;2023-04-25T05:51:51;27.83;;;6.22;;
59418;SDS011;45224;50.904;6.038;2023-04-25T05:53:41;18.30;;;5.90;;
59418;SDS011;45224;50.904;6.038;2023-04-25T05:55:12;21.37;;;5.80;;
59418;SDS011;45224;50.904;6.038;2023-04-25T16:41:54;7.90;;;1.92;;
59418;SDS011;45224;50.904;6.038;2023-04-25T16:43:25;9.87;;;2.07;;
59418;SDS011;45224;50.904;6.038;2023-04-25T16:44:55;7.38;;;2.00;;
59418;SDS011;45224;50.904;6.038;2023-04-25T16:46:26;7.40;;;1.80;;
59418;SDS011;45224;50.904;6.038;2023-04-25T16:47:56;8.47;;;1.90;;
59418;SDS011;45224;50.904;6.038;2023-04-25T16:49:27;7.22;;;2.10;;
59418;SDS011;45224;50.904;6.038;2023-04-25T16:50:58;8.07;;;2.20;;
59418;SDS011;45224;50.904;6.038;2023-04-25T16:52:28;6.77;;;1.87;;
59418;SDS011;45224;50.904;6.038;2023-04-25T16:53:59;6.07;;;1.67;;
59418;SDS011;45224;50.904;6.038;2023-04-25T16:55:30;7.78;;;1.70;;
59418;SDS011;45224;50.904;6.038;2023-04-25T16:57:00;10.57;;;2.57;;
59418;SDS011;45224;50.904;6.038;2023-04-25T16:58:31;11.77;;;2.57;;
59418;SDS011;45224;50.904;6.038;2023-04-25T17:00:02;5.67;;;1.77;;
59418;SDS011;45224;50.904;6.038;2023-04-25T17:01:38;10.57;;;2.15;;
59418;SDS011;45224;50.904;6.038;2023-04-25T17:03:09;5.60;;;1.73;;
59418;SDS011;45224;50.904;6.038;2023-04-25T17:04:39;8.63;;;2.53;;
59418;SDS011;45224;50.904;6.038;2023-04-25T17:06:10;10.82;;;2.10;;
59418;SDS011;45224;50.904;6.038;2023-04-25T17:07:41;14.95;;;3.50;;
59418;SDS011;45224;50.904;6.038;2023-04-25T17:09:11;13.07;;;2.90;;
59418;SDS011;45224;50.904;6.038;2023-04-25T17:10:42;12.13;;;2.87;;
59418;SDS011;45224;50.904;6.038;2023-04-25T17:12:12;15.20;;;2.63;;
59418;SDS011;45224;50.904;6.038;2023-04-25T17:13:43;7.07;;;2.60;;
59418;SDS011;45224;50.904;6.038;2023-04-25T17:15:14;13.98;;;3.80;;
59418;SDS011;45224;50.904;6.038;2023-04-25T17:16:45;10.55;;;2.78;;
59418;SDS011;45224;50.904;6.038;2023-04-25T17:18:15;14.23;;;4.17;;
59418;SDS011;45224;50.904;6.038;2023-04-25T17:19:46;10.55;;;2.28;;
59418;SDS011;45224;50.904;6.038;2023-04-25T17:21:17;11.43;;;2.33;;
59418;SDS011;45224;50.904;6.038;2023-04-25T17:22:47;10.47;;;2.80;;
59418;SDS011;45224;50.904;6.038;2023-04-25T17:24:18;13.98;;;3.00;;
59418;SDS011;45224;50.904;6.038;2023-04-25T17:25:50;11.45;;;2.78;;
59418;SDS011;45224;50.904;6.038;2023-04-25T17:27:21;13.90;;;2.43;;
59418;SDS011;45224;50.904;6.038;2023-04-25T17:28:54;15.63;;;3.23;;
59418;SDS011;45224;50.904;6.038;2023-04-25T17:30:25;11.57;;;2.70;;
59418;SDS011;45224;50.904;6.038;2023-04-25T17:31:56;11.40;;;2.20;;
59418;SDS011;45224;50.904;6.038;2023-04-25T17:33:26;8.15;;;2.40;;
59418;SDS011;45224;50.904;6.038;2023-04-25T17:34:57;10.63;;;2.38;;
59418;SDS011;45224;50.904;6.038;2023-04-25T17:37:59;16.55;;;3.08;;
59418;SDS011;45224;50.904;6.038;2023-04-25T17:39:30;12.63;;;2.67;;
59418;SDS011;45224;50.904;6.038;2023-04-25T17:41:01;9.43;;;2.55;;
59418;SDS011;45224;50.904;6.038;2023-04-25T17:42:32;11.67;;;2.80;;
59418;SDS011;45224;50.904;6.038;2023-04-25T17:44:02;7.53;;;2.60;;
59418;SDS011;45224;50.904;6.038;2023-04-25T17:45:33;14.17;;;2.90;;
59418;SDS011;45224;50.904;6.038;2023-04-25T17:47:05;8.60;;;2.20;;
59418;SDS011;45224;50.904;6.038;2023-04-25T17:48:35;11.33;;;2.23;;
59418;SDS011;45224;50.904;6.038;2023-04-25T17:50:06;9.50;;;2.50;;
59418;SDS011;45224;50.904;6.038;2023-04-25T17:51:37;7.10;;;1.80;;
59418;SDS011;45224;50.904;6.038;2023-04-25T17:53:08;11.88;;;2.55;;
59418;SDS011;45224;50.904;6.038;2023-04-25T17:54:38;10.13;;;2.33;;
59418;SDS011;45224;50.904;6.038;2023-04-25T17:56:09;10.70;;;2.10;;
59418;SDS011;45224;50.904;6.038;2023-04-25T17:57:39;11.30;;;2.93;;
59418;SDS011;45224;50.904;6.038;2023-04-25T17:59:10;13.50;;;2.97;;
59418;SDS011;45224;50.904;6.038;2023-04-25T18:00:40;4.47;;;1.93;;
59418;SDS011;45224;50.904;6.038;2023-04-25T18:02:11;7.80;;;2.15;;
59418;SDS011;45224;50.904;6.038;2023-04-25T18:03:42;14.83;;;2.20;;
59418;SDS011;45224;50.904;6.038;2023-04-25T18:05:14;8.50;;;2.10;;
59418;SDS011;45224;50.904;6.038;2023-04-25T18:06:45;11.75;;;2.25;;
59418;SDS011;45224;50.904;6.038;2023-04-25T18:08:16;12.47;;;2.17;;
59418;SDS011;45224;50.904;6.038;2023-04-25T18:09:46;6.72;;;2.55;;
59418;SDS011;45224;50.904;6.038;2023-04-25T18:11:17;10.90;;;2.23;;
59418;SDS011;45224;50.904;6.038;2023-04-25T18:12:47;9.07;;;1.93;;
59418;SDS011;45224;50.904;6.038;2023-04-25T18:14:20;6.43;;;2.03;;
59418;SDS011;45224;50.904;6.038;2023-04-25T18:15:51;14.02;;;2.33;;
59418;SDS011;45224;50.904;6.038;2023-04-25T18:17:21;13.90;;;2.87;;
59418;SDS011;45224;50.904;6.038;2023-04-25T18:18:54;8.52;;;2.08;;
59418;SDS011;45224;50.904;6.038;2023-04-25T18:20:34;12.93;;;2.72;;
59418;SDS011;45224;50.904;6.038;2023-04-25T18:22:04;8.10;;;2.00;;
59418;SDS011;45224;50.904;6.038;2023-04-25T18:23:35;8.80;;;2.23;;
59418;SDS011;45224;50.904;6.038;2023-04-25T18:25:07;7.07;;;2.58;;
59418;SDS011;45224;50.904;6.038;2023-04-25T18:26:46;9.10;;;2.45;;
59418;SDS011;45224;50.904;6.038;2023-04-25T18:28:19;10.43;;;2.03;;
59418;SDS011;45224;50.904;6.038;2023-04-25T18:29:51;11.48;;;2.50;;
59418;SDS011;45224;50.904;6.038;2023-04-25T18:31:22;16.38;;;2.58;;
59418;SDS011;45224;50.904;6.038;2023-04-25T18:32:54;8.75;;;2.42;;
59418;SDS011;45224;50.904;6.038;2023-04-25T18:34:25;9.05;;;2.30;;
59418;SDS011;45224;50.904;6.038;2023-04-25T18:35:56;8.43;;;2.50;;
59418;SDS011;45224;50.904;6.038;2023-04-25T18:37:28;7.68;;;2.03;;
59418;SDS011;45224;50.904;6.038;2023-04-25T18:38:59;10.73;;;2.28;;
59418;SDS011;45224;50.904;6.038;2023-04-25T18:40:31;9.82;;;2.38;;
59418;SDS011;45224;50.904;6.038;2023-04-25T18:42:02;8.18;;;2.25;;
59418;SDS011;45224;50.904;6.038;2023-04-25T18:43:32;10.32;;;2.80;;
59418;SDS011;45224;50.904;6.038;2023-04-25T18:45:03;11.13;;;2.43;;
59418;SDS011;45224;50.904;6.038;2023-04-25T18:46:34;9.32;;;2.45;;
59418;SDS011;45224;50.904;6.038;2023-04-25T18:49:36;8.33;;;2.00;;
59418;SDS011;45224;50.904;6.038;2023-04-25T18:51:07;8.27;;;2.37;;
59418;SDS011;45224;50.904;6.038;2023-04-25T18:52:38;8.98;;;2.63;;
59418;SDS011;45224;50.904;6.038;2023-04-25T18:54:08;12.00;;;2.27;;
59418;SDS011;45224;50.904;6.038;2023-04-25T18:55:40;6.53;;;2.00;;
59418;SDS011;45224;50.904;6.038;2023-04-25T18:57:11;9.70;;;2.50;;
59418;SDS011;45224;50.904;6.038;2023-04-25T18:58:44;12.60;;;2.30;;
59418;SDS011;45224;50.904;6.038;2023-04-25T19:00:14;7.53;;;2.37;;
59418;SDS011;45224;50.904;6.038;2023-04-25T19:01:46;9.63;;;2.92;;
59418;SDS011;45224;50.904;6.038;2023-04-25T19:03:18;8.20;;;2.55;;
59418;SDS011;45224;50.904;6.038;2023-04-25T19:04:48;7.87;;;2.10;;
59418;SDS011;45224;50.904;6.038;2023-04-25T19:06:19;9.60;;;2.93;;
59418;SDS011;45224;50.904;6.038;2023-04-25T19:07:52;11.45;;;2.38;;
59418;SDS011;45224;50.904;6.038;2023-04-25T19:09:22;9.57;;;2.40;;
59418;SDS011;45224;50.904;6.038;2023-04-25T19:12:24;12.10;;;2.97;;
59418;SDS011;45224;50.904;6.038;2023-04-25T19:13:54;7.50;;;2.33;;
59418;SDS011;45224;50.904;6.038;2023-04-25T19:15:25;10.60;;;2.60;;
59418;SDS011;45224;50.904;6.038;2023-04-25T19:18:28;7.43;;;2.88;;
59418;SDS011;45224;50.904;6.038;2023-04-25T19:19:59;7.82;;;2.28;;
59418;SDS011;45224;50.904;6.038;2023-04-25T19:21:33;8.88;;;2.35;;
59418;SDS011;45224;50.904;6.038;2023-04-25T19:23:05;11.10;;;2.58;;
59418;SDS011;45224;50.904;6.038;2023-04-25T19:24:36;9.52;;;2.95;;
59418;SDS011;45224;50.904;6.038;2023-04-25T19:26:07;9.82;;;2.40;;
59418;SDS011;45224;50.904;6.038;2023-04-25T19:27:37;11.30;;;2.50;;
59418;SDS011;45224;50.904;6.038;2023-04-25T19:29:09;8.77;;;2.40;;
59418;SDS011;45224;50.904;6.038;2023-04-25T19:30:41;7.85;;;2.10;;
59418;SDS011;45224;50.904;6.038;2023-04-25T19:32:12;10.80;;;2.60;;
59418;SDS011;45224;50.904;6.038;2023-04-25T19:33:43;6.70;;;1.67;;
59418;SDS011;45224;50.904;6.038;2023-04-25T19:35:14;8.47;;;2.10;;
59418;SDS011;45224;50.904;6.038;2023-04-25T19:36:44;6.13;;;1.77;;
59418;SDS011;45224;50.904;6.038;2023-04-25T19:38:15;9.00;;;2.20;;
59418;SDS011;45224;50.904;6.038;2023-04-25T19:39:46;4.30;;;2.38;;
59418;SDS011;45224;50.904;6.038;2023-04-25T19:41:17;9.10;;;2.20;;
59418;SDS011;45224;50.904;6.038;2023-04-25T19:42:47;7.47;;;2.40;;
59418;SDS011;45224;50.904;6.038;2023-04-25T19:44:18;8.17;;;2.00;;
59418;SDS011;45224;50.904;6.038;2023-04-25T19:45:48;4.60;;;2.03;;
59418;SDS011;45224;50.904;6.038;2023-04-25T19:47:18;6.60;;;2.00;;
59418;SDS011;45224;50.904;6.038;2023-04-25T19:48:49;5.60;;;2.03;;
59418;SDS011;45224;50.904;6.038;2023-04-25T19:50:21;5.13;;;2.00;;
59418;SDS011;45224;50.904;6.038;2023-04-25T19:51:51;5.85;;;2.00;;
59418;SDS011;45224;50.904;6.038;2023-04-25T19:53:22;10.30;;;2.03;;
59418;SDS011;45224;50.904;6.038;2023-04-25T19:54:52;6.77;;;1.90;;
59418;SDS011;45224;50.904;6.038;2023-04-25T19:56:27;6.15;;;2.00;;
59418;SDS011;45224;50.904;6.038;2023-04-25T19:59:28;5.40;;;2.07;;
59418;SDS011;45224;50.904;6.038;2023-04-25T20:00:59;8.10;;;2.30;;
59418;SDS011;45224;50.904;6.038;2023-04-25T20:02:29;7.20;;;2.00;;
59418;SDS011;45224;50.904;6.038;2023-04-25T20:04:00;11.13;;;3.00;;
59418;SDS011;45224;50.904;6.038;2023-04-25T20:05:31;14.43;;;3.93;;
59418;SDS011;45224;50.904;6.038;2023-04-25T20:07:01;9.90;;;3.27;;
59418;SDS011;45224;50.904;6.038;2023-04-25T20:08:36;6.85;;;2.33;;
59418;SDS011;45224;50.904;6.038;2023-04-25T20:10:07;7.53;;;2.35;;
59418;SDS011;45224;50.904;6.038;2023-04-25T20:11:39;8.68;;;2.10;;
59418;SDS011;45224;50.904;6.038;2023-04-25T20:13:10;5.60;;;2.53;;
59418;SDS011;45224;50.904;6.038;2023-04-25T20:14:41;7.07;;;2.15;;
59418;SDS011;45224;50.904;6.038;2023-04-25T20:16:12;9.00;;;1.80;;
59418;SDS011;45224;50.904;6.038;2023-04-25T20:17:48;11.95;;;2.20;;